Time;durP1;ratioP1;P1;durP2;ratioP2;P2;SDS_P1;SDS_P2;PMS_P1;PMS_P2;Temp;Humidity;BMP_temperature;BMP_pressure;BME280_temperature;BME280_humidity;BME280_pressure;Samples;Min_cycle;Max_cycle;Signal;HPM_P1;HPM_P2
2022/04/10 00:00:36;;;;;;;25.00;23.40;;;2.60;90.20;;;;;;5019861;28;20931;-82
2022/04/10 00:03:04;;;;;;;26.27;23.97;;;2.60;90.40;;;;;;5020515;28;20457;-81
2022/04/10 00:05:31;;;;;;;23.57;21.70;;;2.60;90.60;;;;;;5020588;28;20476;-81
2022/04/10 00:07:58;;;;;;;32.67;30.63;;;2.60;90.70;;;;;;5021646;28;20461;-81
2022/04/10 00:10:24;;;;;;;24.17;22.70;;;2.60;90.90;;;;;;5019599;28;20449;-82
2022/04/10 00:12:51;;;;;;;31.10;29.40;;;2.70;90.70;;;;;;5020375;28;20453;-80
2022/04/10 00:15:18;;;;;;;27.90;25.90;;;2.60;91.00;;;;;;5020391;28;20465;-81
2022/04/10 00:17:45;;;;;;;29.00;27.20;;;2.60;90.50;;;;;;5020490;28;20453;-81
2022/04/10 00:20:13;;;;;;;32.73;30.37;;;2.70;90.70;;;;;;5019696;28;20480;-81
2022/04/10 00:22:41;;;;;;;34.33;31.90;;;2.60;90.90;;;;;;5020598;28;20452;-81
2022/04/10 00:25:08;;;;;;;32.33;30.20;;;2.50;91.00;;;;;;5019824;28;20476;-81
2022/04/10 00:27:35;;;;;;;33.60;31.40;;;2.60;91.20;;;;;;5019947;28;20449;-82
2022/04/10 00:30:02;;;;;;;34.13;31.97;;;2.50;91.40;;;;;;5019185;28;20450;-82
2022/04/10 00:32:28;;;;;;;38.87;36.30;;;2.40;91.50;;;;;;5020457;28;20457;-82
2022/04/10 00:34:55;;;;;;;42.63;39.97;;;2.40;91.70;;;;;;5019041;28;20477;-80
2022/04/10 00:37:24;;;;;;;38.80;36.60;;;2.30;92.00;;;;;;5020409;28;20838;-82
2022/04/10 00:39:50;;;;;;;54.03;50.73;;;2.30;92.20;;;;;;5019484;28;20837;-82
2022/04/10 00:42:17;;;;;;;55.97;53.13;;;2.30;92.00;;;;;;5019886;28;20460;-81
2022/04/10 00:44:44;;;;;;;55.17;51.30;;;2.30;92.20;;;;;;5018319;28;20568;-82
2022/04/10 00:47:11;;;;;;;48.07;45.93;;;2.30;92.20;;;;;;5019511;28;20480;-81
2022/04/10 00:49:38;;;;;;;59.20;56.30;;;2.40;92.00;;;;;;5018745;28;20449;-80
2022/04/10 00:52:07;;;;;;;43.03;40.70;;;2.40;91.90;;;;;;5019948;28;20456;-82
2022/04/10 00:54:36;;;;;;;35.10;32.77;;;2.50;91.60;;;;;;5019366;28;20520;-80
2022/04/10 00:57:03;;;;;;;35.73;33.37;;;2.40;91.50;;;;;;5019980;28;20453;-81
2022/04/10 00:59:30;;;;;;;33.43;31.13;;;2.40;91.50;;;;;;5018906;28;20456;-81
2022/04/10 01:01:57;;;;;;;40.40;37.87;;;2.40;91.50;;;;;;5019213;28;20484;-81
2022/04/10 01:04:25;;;;;;;42.43;40.10;;;2.30;91.70;;;;;;5019468;28;20445;-81
2022/04/10 01:06:53;;;;;;;43.97;41.37;;;2.40;91.80;;;;;;5019704;28;20525;-81
2022/04/10 01:09:21;;;;;;;42.93;40.00;;;2.30;91.90;;;;;;5018926;28;20552;-82
2022/04/10 01:11:49;;;;;;;46.03;43.07;;;2.30;92.00;;;;;;5019253;28;20829;-81
2022/04/10 01:14:16;;;;;;;33.83;31.93;;;2.40;91.90;;;;;;5019085;28;20515;-81
2022/04/10 01:16:43;;;;;;;36.27;33.77;;;2.20;91.60;;;;;;5019230;28;20457;-81
2022/04/10 01:19:11;;;;;;;41.60;39.20;;;2.30;91.80;;;;;;5019094;28;20480;-81
2022/04/10 01:21:42;;;;;;;49.90;47.33;;;2.30;91.80;;;;;;5020427;28;20543;-81
2022/04/10 01:24:12;;;;;;;41.70;39.20;;;2.10;92.10;;;;;;5019099;28;20449;-81
2022/04/10 01:26:39;;;;;;;39.33;36.83;;;2.20;92.10;;;;;;5019353;28;20511;-81
2022/04/10 01:29:08;;;;;;;56.90;54.03;;;2.10;92.10;;;;;;5017912;28;20479;-81
2022/04/10 01:31:37;;;;;;;61.60;58.90;;;2.00;92.60;;;;;;5018841;28;20568;-81
2022/04/10 01:34:06;;;;;;;82.60;78.83;;;2.00;92.90;;;;;;5019636;28;20471;-81
2022/04/10 01:36:34;;;;;;;86.97;82.50;;;2.10;93.00;;;;;;5018793;28;20480;-79
2022/04/10 01:39:03;;;;;;;76.97;73.73;;;2.00;92.90;;;;;;5015968;28;20858;-82
2022/04/10 01:41:32;;;;;;;81.90;77.73;;;1.90;93.10;;;;;;5018751;28;20484;-81
2022/04/10 01:44:00;;;;;;;90.67;86.97;;;1.80;93.40;;;;;;5018065;28;20445;-81
2022/04/10 01:46:28;;;;;;;109.27;104.97;;;2.00;93.60;;;;;;5018652;28;20469;-81
2022/04/10 01:48:55;;;;;;;97.87;93.47;;;1.90;93.60;;;;;;5018873;28;20453;-81
2022/04/10 01:51:21;;;;;;;94.10;89.67;;;2.00;93.20;;;;;;5019224;28;20441;-81
2022/04/10 01:53:48;;;;;;;73.63;70.33;;;2.10;92.90;;;;;;5018970;28;20453;-81
2022/04/10 01:56:15;;;;;;;80.40;76.60;;;2.20;92.90;;;;;;5039993;23;20515;-80
2022/04/10 01:58:45;;;;;;;69.70;66.37;;;2.20;92.70;;;;;;5000314;28;20453;-80
2022/04/10 02:01:12;;;;;;;56.73;53.63;;;2.20;92.40;;;;;;4998059;28;20477;-80
2022/04/10 02:03:40;;;;;;;64.83;61.40;;;2.10;92.20;;;;;;5018297;28;20834;-80
2022/04/10 02:06:08;;;;;;;63.27;60.43;;;2.10;92.40;;;;;;5017855;28;20858;-80
2022/04/10 02:08:35;;;;;;;60.00;56.97;;;2.20;92.40;;;;;;5015553;28;20565;-80
2022/04/10 02:11:02;;;;;;;49.70;46.57;;;2.30;92.10;;;;;;5017864;28;20444;-80
2022/04/10 02:13:29;;;;;;;39.20;36.67;;;2.30;91.80;;;;;;5000556;28;20454;-80
2022/04/10 02:15:57;;;;;;;41.50;39.27;;;2.30;91.40;;;;;;4997401;28;20471;-80
2022/04/10 02:18:24;;;;;;;42.70;40.30;;;2.40;91.40;;;;;;5013852;28;20449;-80
2022/04/10 02:20:51;;;;;;;42.80;40.37;;;2.50;91.40;;;;;;5017051;28;20496;-80
2022/04/10 02:23:18;;;;;;;39.57;37.67;;;2.40;91.00;;;;;;5001508;28;20481;-80
2022/04/10 02:25:45;;;;;;;50.73;47.17;;;2.30;91.20;;;;;;4997822;28;20477;-80
2022/04/10 02:28:12;;;;;;;45.93;43.33;;;2.30;91.80;;;;;;5010915;28;20465;-79
2022/04/10 02:30:39;;;;;;;47.00;44.80;;;2.30;91.60;;;;;;5016105;28;20453;-80
2022/04/10 02:33:07;;;;;;;44.37;40.67;;;2.40;91.60;;;;;;5002908;28;20450;-80
2022/04/10 02:35:33;;;;;;;40.53;37.93;;;2.50;91.20;;;;;;5017608;28;20990;-80
2022/04/10 02:38:00;;;;;;;40.87;38.37;;;2.40;91.30;;;;;;5005464;28;20481;-80
2022/04/10 02:40:27;;;;;;;32.67;30.20;;;2.50;91.20;;;;;;4997032;28;20461;-80
2022/04/10 02:42:54;;;;;;;28.60;25.60;;;2.60;90.70;;;;;;4998827;28;20450;-81
2022/04/10 02:45:20;;;;;;;22.23;20.70;;;2.60;90.30;;;;;;4996786;28;20482;-80
2022/04/10 02:47:47;;;;;;;19.30;17.40;;;2.90;89.10;;;;;;5007307;28;20453;-79
2022/04/10 02:50:15;;;;;;;15.57;14.07;;;2.80;88.40;;;;;;5013005;28;20453;-80
2022/04/10 02:52:42;;;;;;;17.40;13.97;;;2.90;88.00;;;;;;5017013;28;20449;-80
2022/04/10 02:55:09;;;;;;;13.27;11.87;;;2.80;87.70;;;;;;5012023;28;20477;-80
2022/04/10 02:57:36;;;;;;;14.83;13.50;;;2.80;88.40;;;;;;4996555;28;20473;-80
2022/04/10 03:00:05;;;;;;;19.00;15.97;;;2.80;89.60;;;;;;4998467;28;20461;-80
2022/04/10 03:02:32;;;;;;;21.63;19.40;;;2.60;90.10;;;;;;5015959;28;20477;-80
2022/04/10 03:04:59;;;;;;;22.10;20.30;;;2.70;90.20;;;;;;5016587;28;20488;-80
2022/04/10 03:07:27;;;;;;;22.67;20.60;;;2.60;90.50;;;;;;5015959;28;20457;-81
2022/04/10 03:09:53;;;;;;;26.03;24.40;;;2.60;90.50;;;;;;5019534;28;20464;-80
2022/04/10 03:12:20;;;;;;;34.97;32.23;;;2.60;90.70;;;;;;5001496;28;20459;-80
2022/04/10 03:14:47;;;;;;;31.50;29.27;;;2.60;91.40;;;;;;5000581;28;20457;-80
2022/04/10 03:17:13;;;;;;;39.40;37.13;;;2.60;91.30;;;;;;5018023;28;20449;-81
2022/04/10 03:19:40;;;;;;;44.20;41.43;;;2.60;91.70;;;;;;5018723;28;20981;-80
2022/04/10 03:22:07;;;;;;;52.67;50.10;;;2.60;91.80;;;;;;4998902;28;20517;-80
2022/04/10 03:24:36;;;;;;;53.33;50.70;;;2.40;91.70;;;;;;4998657;28;20458;-80
2022/04/10 03:27:03;;;;;;;65.07;61.83;;;2.50;92.00;;;;;;5016927;28;20457;-81
2022/04/10 03:29:29;;;;;;;62.83;59.57;;;2.40;92.20;;;;;;5006311;28;20454;-80
2022/04/10 03:31:56;;;;;;;70.30;66.27;;;2.40;92.50;;;;;;5006226;28;20445;-81
2022/04/10 03:34:23;;;;;;;74.90;71.60;;;2.50;93.10;;;;;;5008907;28;20465;-80
2022/04/10 03:36:50;;;;;;;92.07;88.07;;;2.40;93.00;;;;;;5001795;28;20477;-80
2022/04/10 03:39:17;;;;;;;79.13;75.23;;;2.50;93.20;;;;;;4995539;28;20450;-80
2022/04/10 03:41:45;;;;;;;84.60;80.97;;;2.60;93.10;;;;;;4997244;28;20497;-80
2022/04/10 03:44:11;;;;;;;71.17;67.77;;;2.60;93.10;;;;;;4995521;28;20461;-80
2022/04/10 03:46:38;;;;;;;64.97;61.77;;;2.60;92.40;;;;;;4997962;28;20840;-81
2022/04/10 03:49:07;;;;;;;58.90;55.80;;;2.70;92.70;;;;;;4996236;28;20453;-80
2022/04/10 03:51:33;;;;;;;49.73;47.03;;;2.80;92.50;;;;;;5013299;28;20572;-80
2022/04/10 03:54:00;;;;;;;44.60;41.60;;;2.70;92.00;;;;;;5017704;28;20457;-81
2022/04/10 03:56:27;;;;;;;36.10;33.30;;;2.80;91.80;;;;;;4999993;28;20484;-80
2022/04/10 03:58:55;;;;;;;33.47;31.47;;;2.80;91.60;;;;;;4996850;28;20462;-80
2022/04/10 04:01:22;;;;;;;38.27;34.97;;;2.70;91.60;;;;;;5011540;28;20954;-80
2022/04/10 04:03:48;;;;;;;43.77;41.30;;;2.60;91.90;;;;;;5014927;28;20484;-80
2022/04/10 04:06:15;;;;;;;42.23;39.93;;;2.60;92.20;;;;;;5003275;28;20474;-80
2022/04/10 04:08:42;;;;;;;57.77;54.37;;;2.50;92.40;;;;;;4997485;28;20872;-80
2022/04/10 04:11:08;;;;;;;65.40;62.03;;;2.60;92.60;;;;;;5014852;28;20482;-80
2022/04/10 04:13:38;;;;;;;72.00;68.70;;;2.40;93.00;;;;;;5011116;28;20450;-80
2022/04/10 04:16:06;;;;;;;110.37;105.07;;;2.20;93.00;;;;;;5000206;28;20474;-81
2022/04/10 04:18:34;;;;;;;127.30;121.90;;;2.20;93.60;;;;;;4995154;28;20545;-81
2022/04/10 04:21:01;;;;;;;144.47;138.90;;;2.20;93.90;;;;;;4998193;28;20458;-80
2022/04/10 04:23:29;;;;;;;155.63;149.77;;;2.10;94.20;;;;;;4998456;28;20460;-81
2022/04/10 04:25:55;;;;;;;181.27;173.87;;;2.00;95.30;;;;;;4976299;28;20471;-80
2022/04/10 04:28:22;;;;;;;214.80;206.30;;;1.80;94.90;;;;;;4983635;28;20819;-80
2022/04/10 04:30:49;;;;;;;246.80;237.17;;;1.70;96.20;;;;;;5002885;28;20453;-81
2022/04/10 04:33:17;;;;;;;342.07;328.03;;;1.70;97.60;;;;;;5015761;28;20477;-80
2022/04/10 04:35:44;;;;;;;392.97;376.47;;;1.50;98.60;;;;;;5004828;28;20477;-81
2022/04/10 04:38:11;;;;;;;417.63;400.27;;;1.60;99.90;;;;;;4996579;28;20963;-79
2022/04/10 04:40:37;;;;;;;444.45;425.60;;;1.60;99.90;;;;;;4999550;28;20454;-80
2022/04/10 04:43:04;;;;;;;490.70;468.37;;;1.50;99.90;;;;;;4996723;28;20691;-81
2022/04/10 04:45:31;;;;;;;500.40;477.17;;;1.60;99.90;;;;;;5012463;28;20497;-81
2022/04/10 04:47:58;;;;;;;522.50;498.73;;;1.60;99.90;;;;;;5002288;28;20453;-81
2022/04/10 04:50:26;;;;;;;553.67;527.27;;;1.50;99.90;;;;;;5005929;28;20457;-81
2022/04/10 04:52:53;;;;;;;537.03;511.50;;;1.60;99.90;;;;;;4997115;28;20474;-81
2022/04/10 04:55:20;;;;;;;524.50;499.80;;;1.40;99.90;;;;;;4997256;28;20490;-81
2022/04/10 04:57:47;;;;;;;512.83;487.73;;;1.30;99.90;;;;;;4976830;28;20822;-81
2022/04/10 05:00:14;;;;;;;575.57;547.47;;;1.10;99.90;;;;;;5001045;28;20844;-82
2022/04/10 05:02:41;;;;;;;646.73;612.60;;;1.10;99.90;;;;;;4999821;28;20451;-80
2022/04/10 05:05:09;;;;;;;617.07;585.40;;;1.10;99.90;;;;;;5008236;28;20473;-80
2022/04/10 05:07:37;;;;;;;678.23;640.73;;;1.00;99.90;;;;;;5015966;28;20464;-81
2022/04/10 05:10:04;;;;;;;716.93;675.23;;;1.00;99.90;;;;;;5003889;28;20454;-81
2022/04/10 05:12:32;;;;;;;752.70;706.80;;;1.00;99.90;;;;;;4997566;28;20474;-80
2022/04/10 05:14:59;;;;;;;750.90;704.10;;;1.20;99.90;;;;;;4997868;28;20533;-81
2022/04/10 05:17:28;;;;;;;735.37;690.53;;;1.20;99.90;;;;;;5010477;28;20457;-80
2022/04/10 05:19:54;;;;;;;747.57;702.77;;;1.10;99.90;;;;;;4998516;28;20541;-80
2022/04/10 05:22:21;;;;;;;741.63;697.13;;;1.20;99.90;;;;;;5005949;28;20446;-80
2022/04/10 05:24:50;;;;;;;777.30;729.60;;;1.20;99.90;;;;;;4995146;28;20881;-80
2022/04/10 05:27:16;;;;;;;783.47;734.67;;;1.20;99.90;;;;;;4996454;28;20458;-80
2022/04/10 05:29:43;;;;;;;788.03;739.53;;;1.30;99.90;;;;;;5004318;28;20476;-80
2022/04/10 05:32:11;;;;;;;785.73;735.93;;;1.30;99.90;;;;;;5006385;28;20496;-80
2022/04/10 05:34:38;;;;;;;788.33;738.03;;;1.40;99.90;;;;;;5006401;28;20512;-79
2022/04/10 05:37:05;;;;;;;784.50;734.80;;;1.50;99.90;;;;;;4995616;28;20450;-80
2022/04/10 05:39:32;;;;;;;799.17;748.50;;;1.50;99.90;;;;;;4987465;28;20451;-80
2022/04/10 05:42:00;;;;;;;790.23;739.33;;;1.60;99.90;;;;;;5005810;28;20448;-80
2022/04/10 05:44:26;;;;;;;758.23;711.20;;;1.60;99.90;;;;;;5009198;28;20980;-79
2022/04/10 05:46:53;;;;;;;751.43;705.47;;;1.70;99.90;;;;;;4993498;28;20462;-80
2022/04/10 05:49:20;;;;;;;765.60;719.37;;;1.70;99.90;;;;;;4993568;28;20457;-80
2022/04/10 05:51:47;;;;;;;736.63;694.13;;;1.80;99.90;;;;;;5002503;28;20473;-80
2022/04/10 05:54:14;;;;;;;711.30;671.07;;;1.90;99.90;;;;;;5007683;28;20963;-80
2022/04/10 05:56:41;;;;;;;722.13;681.27;;;2.00;99.90;;;;;;4994826;28;20543;-80
2022/04/10 05:59:09;;;;;;;668.80;632.50;;;2.30;99.90;;;;;;4997125;28;20456;-80
2022/04/10 06:01:36;;;;;;;653.40;619.37;;;2.30;99.90;;;;;;5004793;28;20476;-80
2022/04/10 06:04:02;;;;;;;654.00;619.97;;;2.50;99.90;;;;;;5007320;28;20477;-81
2022/04/10 06:06:29;;;;;;;648.57;616.27;;;2.70;99.90;;;;;;5005092;28;20481;-81
2022/04/10 06:08:56;;;;;;;594.67;566.83;;;2.60;99.90;;;;;;5004267;28;20457;-81
2022/04/10 06:11:23;;;;;;;547.03;522.80;;;2.90;99.90;;;;;;5000464;28;20485;-81
2022/04/10 06:13:49;;;;;;;458.47;439.53;;;3.00;99.90;;;;;;5003059;28;20478;-81
2022/04/10 06:16:18;;;;;;;430.17;412.30;;;3.20;99.90;;;;;;5002742;28;20848;-80
2022/04/10 06:18:44;;;;;;;299.03;286.47;;;3.40;99.90;;;;;;5002071;28;20449;-80
2022/04/10 06:21:11;;;;;;;302.13;290.73;;;3.50;99.90;;;;;;5014659;28;20459;-81
2022/04/10 06:23:38;;;;;;;232.67;223.87;;;3.70;99.90;;;;;;5001026;28;20477;-80
2022/04/10 06:26:04;;;;;;;176.30;169.33;;;3.70;99.80;;;;;;5000916;28;20485;-80
2022/04/10 06:28:31;;;;;;;122.37;117.20;;;3.90;97.90;;;;;;4998387;28;20457;-80
2022/04/10 06:30:58;;;;;;;53.27;50.23;;;4.10;95.80;;;;;;4998940;28;20977;-80
2022/04/10 06:33:26;;;;;;;38.60;35.90;;;4.10;94.30;;;;;;5008398;28;20470;-80
2022/04/10 06:35:54;;;;;;;32.03;29.70;;;4.30;93.70;;;;;;5013207;28;20473;-80
2022/04/10 06:38:21;;;;;;;26.30;24.30;;;4.40;93.00;;;;;;5006996;28;20549;-80
2022/04/10 06:40:51;;;;;;;24.10;21.90;;;4.50;92.30;;;;;;5012844;28;20454;-81
2022/04/10 06:43:17;;;;;;;22.97;20.67;;;4.70;92.50;;;;;;5004808;28;20458;-81
2022/04/10 06:45:44;;;;;;;18.43;16.70;;;4.70;91.50;;;;;;5000725;28;20476;-81
2022/04/10 06:48:11;;;;;;;18.00;16.20;;;4.70;91.40;;;;;;5003094;28;20445;-80
2022/04/10 06:50:39;;;;;;;17.00;13.90;;;4.80;91.00;;;;;;5003675;28;20461;-81
2022/04/10 06:53:06;;;;;;;18.23;15.10;;;5.00;90.70;;;;;;4996142;28;20478;-80
2022/04/10 06:55:33;;;;;;;16.30;12.67;;;5.10;90.50;;;;;;5006547;28;20481;-81
2022/04/10 06:57:59;;;;;;;19.37;14.90;;;5.20;89.90;;;;;;5014848;28;20456;-81
2022/04/10 07:00:27;;;;;;;18.33;14.10;;;5.20;89.10;;;;;;5003857;28;20450;-81
2022/04/10 07:02:54;;;;;;;15.50;11.70;;;5.30;89.20;;;;;;4996081;28;20516;-82
2022/04/10 07:05:20;;;;;;;16.13;11.80;;;5.40;86.60;;;;;;5002292;28;20484;-82
2022/04/10 07:07:48;;;;;;;19.20;10.60;;;5.50;85.50;;;;;;5009643;28;20449;-81
2022/04/10 07:10:15;;;;;;;16.65;12.02;;;5.60;84.60;;;;;;5010655;28;20726;-80
2022/04/10 07:12:42;;;;;;;17.90;10.50;;;5.70;85.20;;;;;;4998736;28;20226;-81
2022/04/10 07:15:09;;;;;;;15.07;10.70;;;5.80;83.40;;;;;;5000586;28;20847;-81
2022/04/10 07:17:36;;;;;;;17.03;10.17;;;6.00;82.20;;;;;;5014607;28;20457;-81
2022/04/10 07:20:03;;;;;;;19.60;10.90;;;6.00;81.10;;;;;;5012692;28;20465;-81
2022/04/10 07:25:15;;;;;;;16.37;11.17;;;6.00;80.40;;;;;;5007611;28;20868;-81
2022/04/10 07:27:42;;;;;;;15.00;10.03;;;6.10;78.30;;;;;;5009676;28;20453;-81
2022/04/10 07:30:09;;;;;;;16.10;9.40;;;6.30;74.80;;;;;;5007177;28;20966;-81
2022/04/10 07:32:37;;;;;;;17.23;10.00;;;6.30;70.60;;;;;;4996510;28;20476;-81
2022/04/10 07:35:04;;;;;;;14.40;9.03;;;6.40;71.50;;;;;;4996824;28;20903;-81
2022/04/10 07:37:31;;;;;;;18.20;8.67;;;6.60;71.60;;;;;;4998500;28;20459;-81
2022/04/10 07:39:58;;;;;;;17.20;8.47;;;6.60;68.00;;;;;;4995699;28;20450;-81
2022/04/10 07:42:27;;;;;;;15.63;9.13;;;6.70;68.30;;;;;;4999830;28;20450;-83
2022/04/10 07:44:59;;;;;;;14.33;8.97;;;6.70;65.00;;;;;;5005468;28;20480;-82
2022/04/10 07:47:31;;;;;;;13.13;7.90;;;6.90;65.80;;;;;;5004205;28;20454;-82
2022/04/10 07:49:58;;;;;;;13.63;8.37;;;7.00;67.50;;;;;;5016571;28;20457;-82
2022/04/10 07:52:25;;;;;;;18.37;9.00;;;7.20;66.80;;;;;;5018819;28;20505;-82
2022/04/10 07:57:22;;;;;;;14.60;6.50;;;7.40;61.90;;;;;;5057264;23;20480;-81
2022/04/10 07:59:50;;;;;;;14.00;8.17;;;7.60;61.00;;;;;;5023961;28;20456;-81
2022/04/10 08:02:16;;;;;;;17.17;8.97;;;7.70;60.00;;;;;;5039815;28;20452;-81
2022/04/10 08:04:43;;;;;;;16.93;7.57;;;8.10;62.20;;;;;;5024064;28;20980;-82
2022/04/10 08:07:10;;;;;;;13.70;8.13;;;8.20;55.90;;;;;;5018314;28;20496;-82
2022/04/10 08:09:37;;;;;;;24.20;14.30;;;8.30;56.20;;;;;;5032613;28;20455;-82
2022/04/10 08:12:04;;;;;;;11.70;8.53;;;8.60;56.30;;;;;;5038048;28;20455;-82
2022/04/10 08:14:31;;;;;;;20.47;10.57;;;8.60;54.70;;;;;;5039703;28;20449;-81
2022/04/10 08:16:59;;;;;;;13.93;7.73;;;8.80;54.40;;;;;;5037624;28;20465;-80
2022/04/10 08:19:26;;;;;;;11.87;7.20;;;8.80;49.60;;;;;;5039306;28;20451;-82
2022/04/10 08:21:53;;;;;;;11.50;7.90;;;9.10;49.20;;;;;;5039005;28;20452;-81
2022/04/10 08:24:19;;;;;;;17.60;9.00;;;9.50;53.10;;;;;;5038214;28;20449;-82
2022/04/10 08:26:46;;;;;;;12.53;8.27;;;9.60;50.70;;;;;;5037404;28;20476;-82
2022/04/10 08:29:13;;;;;;;13.33;6.73;;;9.70;44.60;;;;;;5038092;28;20455;-81
2022/04/10 08:31:40;;;;;;;11.60;7.43;;;10.30;44.20;;;;;;5038583;28;20521;-81
2022/04/10 08:34:09;;;;;;;12.83;6.23;;;10.30;43.10;;;;;;5039252;28;20483;-81
2022/04/10 08:36:35;;;;;;;14.10;6.70;;;9.90;44.10;;;;;;5039006;28;20843;-83
2022/04/10 08:39:02;;;;;;;14.00;7.60;;;9.60;44.50;;;;;;5039107;28;20487;-82
2022/04/10 08:41:31;;;;;;;14.73;6.87;;;9.60;44.50;;;;;;5038888;28;20475;-82
2022/04/10 08:44:01;;;;;;;10.50;4.87;;;9.60;49.20;;;;;;5039703;28;20938;-82
2022/04/10 08:46:28;;;;;;;14.10;6.73;;;9.70;39.80;;;;;;5038844;28;20530;-83
2022/04/10 08:48:58;;;;;;;9.67;4.93;;;9.50;46.10;;;;;;5036625;28;20476;-82
2022/04/10 08:51:28;;;;;;;14.67;6.30;;;8.90;45.80;;;;;;5039364;28;20448;-82
2022/04/10 08:53:56;;;;;;;11.23;5.97;;;9.00;47.40;;;;;;5037842;28;20472;-82
2022/04/10 08:56:23;;;;;;;19.53;6.40;;;8.80;40.20;;;;;;5036719;28;20480;-82
2022/04/10 08:58:50;;;;;;;8.20;4.47;;;8.80;47.60;;;;;;5036833;28;20463;-81
2022/04/10 09:01:20;;;;;;;12.37;4.97;;;8.70;46.10;;;;;;5037078;28;20455;-81
2022/04/10 09:03:47;;;;;;;12.47;5.30;;;9.00;44.00;;;;;;5037435;28;21007;-82
2022/04/10 09:06:14;;;;;;;10.23;5.77;;;10.00;37.90;;;;;;5036780;28;20564;-81
2022/04/10 09:08:43;;;;;;;11.13;3.93;;;10.70;36.50;;;;;;5037568;28;20451;-82
2022/04/10 09:11:11;;;;;;;12.27;5.43;;;11.10;30.70;;;;;;5037632;28;20460;-82
2022/04/10 09:13:40;;;;;;;9.87;3.70;;;10.60;32.40;;;;;;5033899;28;20468;-81
2022/04/10 09:16:09;;;;;;;6.60;2.80;;;9.60;32.50;;;;;;5037103;28;20476;-82
2022/04/10 09:18:55;;;;;;;7.70;3.50;;;9.40;38.20;;;;;;5037025;28;20452;-82
2022/04/10 09:21:24;;;;;;;8.33;3.47;;;9.80;35.00;;;;;;5036275;28;20452;-82
2022/04/10 09:23:57;;;;;;;8.37;3.93;;;10.80;29.70;;;;;;5037041;28;20456;-82
2022/04/10 09:26:24;;;;;;;10.23;3.53;;;11.00;29.00;;;;;;5032495;28;20474;-82
2022/04/10 09:28:51;;;;;;;7.00;3.17;;;11.80;28.30;;;;;;5014932;28;20454;-82
2022/04/10 09:31:32;;;;;;;8.00;3.70;;;11.10;26.60;;;;;;5018745;28;20453;-82
2022/04/10 09:34:01;;;;;;;10.27;3.60;;;12.10;28.70;;;;;;5031757;28;20479;-82
2022/04/10 09:36:30;;;;;;;7.70;3.40;;;12.30;28.60;;;;;;5035932;28;20472;-82
2022/04/10 09:38:58;;;;;;;6.97;3.03;;;11.50;22.60;;;;;;5035918;28;20452;-83
2022/04/10 09:41:24;;;;;;;8.80;4.20;;;11.70;24.00;;;;;;5035185;28;20453;-82
2022/04/10 09:43:51;;;;;;;8.97;4.40;;;11.00;26.60;;;;;;5037938;28;20481;-82
2022/04/10 09:46:18;;;;;;;16.90;3.40;;;10.60;29.40;;;;;;5035836;28;20594;-82
2022/04/10 09:48:45;;;;;;;7.20;2.57;;;9.90;27.90;;;;;;5034965;28;20452;-82
2022/04/10 09:51:12;;;;;;;7.60;2.97;;;10.00;28.70;;;;;;5036133;28;20455;-81
2022/04/10 09:53:39;;;;;;;6.70;2.43;;;10.60;27.40;;;;;;5034474;28;20449;-83
2022/04/10 09:56:08;;;;;;;9.50;3.00;;;11.20;21.80;;;;;;5036149;28;20488;-83
2022/04/10 09:58:36;;;;;;;7.70;2.53;;;12.50;29.00;;;;;;5035937;28;20525;-82
2022/04/10 10:01:04;;;;;;;5.83;2.50;;;12.80;16.70;;;;;;5015579;28;20454;-83
2022/04/10 10:03:33;;;;;;;9.27;3.00;;;12.60;21.30;;;;;;5033060;28;20481;-82
2022/04/10 10:06:00;;;;;;;10.20;4.17;;;11.60;24.80;;;;;;5036176;28;20268;-82
2022/04/10 10:08:28;;;;;;;10.63;3.90;;;10.60;27.50;;;;;;5035449;28;20989;-82
2022/04/10 10:10:56;;;;;;;8.87;4.00;;;10.30;29.40;;;;;;5036853;28;20852;-82
2022/04/10 10:13:26;;;;;;;11.60;3.87;;;9.90;30.10;;;;;;5034083;28;20447;-82
2022/04/10 10:15:55;;;;;;;13.27;4.80;;;9.80;37.10;;;;;;5034956;28;20848;-82
2022/04/10 10:18:24;;;;;;;9.20;3.80;;;9.60;30.60;;;;;;5036659;28;20459;-82
2022/04/10 10:20:51;;;;;;;7.17;3.63;;;9.90;31.80;;;;;;5036510;28;21023;-82
2022/04/10 10:23:21;;;;;;;10.83;2.93;;;10.10;29.70;;;;;;5031740;28;20487;-82
2022/04/10 10:25:59;;;;;;;5.60;1.97;;;10.00;25.60;;;;;;5037132;28;20547;-81
2022/04/10 10:29:05;;;;;;;7.40;2.40;;;10.00;25.30;;;;;;5022482;28;20459;-83
2022/04/10 10:31:48;;;;;;;8.53;2.67;;;10.20;26.40;;;;;;5035317;28;20926;-80
2022/04/10 10:34:16;;;;;;;6.03;3.00;;;10.20;26.00;;;;;;5035992;28;20471;-82
2022/04/10 10:36:42;;;;;;;10.13;2.90;;;11.00;24.00;;;;;;5033815;28;20852;-80
2022/04/10 10:39:10;;;;;;;8.33;2.50;;;11.40;25.70;;;;;;5034894;28;20448;-81
2022/04/10 10:41:39;;;;;;;9.33;3.00;;;11.40;23.90;;;;;;5036595;28;20456;-82
2022/04/10 10:44:40;;;;;;;7.90;1.80;;;11.00;23.60;;;;;;5036263;28;20823;-83
2022/04/10 10:47:16;;;;;;;5.80;1.93;;;10.40;25.30;;;;;;5018626;28;20861;-82
2022/04/10 10:49:45;;;;;;;5.80;1.70;;;10.00;20.70;;;;;;5036619;28;20951;-82
2022/04/10 10:52:13;;;;;;;9.80;2.03;;;9.60;22.70;;;;;;5036436;28;20456;-82
2022/04/10 10:54:44;;;;;;;8.03;2.53;;;9.60;20.20;;;;;;5037740;28;20451;-82
2022/04/10 10:57:32;;;;;;;10.30;2.30;;;9.80;26.80;;;;;;5038012;28;20571;-80
2022/04/10 11:00:16;;;;;;;6.40;1.70;;;9.90;25.30;;;;;;5036579;28;20456;-82
2022/04/10 11:02:49;;;;;;;6.60;1.90;;;10.00;25.90;;;;;;5036449;28;20456;-81
2022/04/10 11:05:32;;;;;;;6.60;2.53;;;9.90;27.70;;;;;;5036656;28;20832;-82
2022/04/10 11:08:03;;;;;;;6.87;2.77;;;9.80;24.10;;;;;;5036523;28;20456;-83
2022/04/10 11:10:30;;;;;;;12.17;2.87;;;10.00;27.00;;;;;;5035136;28;20456;-81
2022/04/10 11:13:02;;;;;;;7.10;2.63;;;10.30;27.20;;;;;;5035175;28;20452;-81
2022/04/10 11:15:35;;;;;;;6.67;2.43;;;10.20;27.60;;;;;;5035384;28;20480;-81
2022/04/10 11:18:31;;;;;;;6.67;2.60;;;9.80;27.60;;;;;;5035080;28;20486;-81
2022/04/10 11:21:01;;;;;;;7.97;2.57;;;10.20;31.80;;;;;;5035783;28;20459;-81
2022/04/10 11:23:32;;;;;;;8.10;2.87;;;10.30;34.70;;;;;;5037151;28;20883;-83
2022/04/10 11:26:05;;;;;;;6.33;2.40;;;10.60;33.30;;;;;;5034357;28;20472;-82
2022/04/10 11:28:53;;;;;;;9.70;3.30;;;10.60;29.20;;;;;;5036995;28;20456;-83
2022/04/10 11:31:38;;;;;;;10.00;3.37;;;10.60;27.20;;;;;;5040212;28;20452;-82
2022/04/10 11:34:14;;;;;;;7.07;2.63;;;11.40;24.70;;;;;;5039397;28;20502;-82
2022/04/10 11:36:53;;;;;;;7.53;2.73;;;11.80;21.10;;;;;;5041268;28;20493;-82
2022/04/10 11:39:28;;;;;;;6.30;2.37;;;12.50;22.70;;;;;;5038577;28;20440;-83
2022/04/10 11:41:58;;;;;;;7.90;2.30;;;13.50;20.00;;;;;;5042553;28;20458;-83
2022/04/10 11:44:25;;;;;;;6.73;2.50;;;14.30;18.10;;;;;;5038897;28;20469;-84
2022/04/10 11:46:53;;;;;;;7.13;2.50;;;14.00;12.10;;;;;;5039533;28;20475;-83
2022/04/10 11:49:20;;;;;;;9.00;2.37;;;14.10;8.90;;;;;;5040415;28;20459;-83
2022/04/10 11:51:54;;;;;;;4.50;1.40;;;14.50;14.30;;;;;;5035576;28;20532;-83
2022/04/10 11:54:28;;;;;;;10.60;2.33;;;13.90;17.50;;;;;;5030017;28;20546;-83
2022/04/10 11:56:58;;;;;;;5.27;1.83;;;13.60;10.10;;;;;;5026995;28;21022;-83
2022/04/10 11:59:25;;;;;;;5.33;2.00;;;14.00;10.70;;;;;;5018213;28;20461;-83
2022/04/10 12:01:54;;;;;;;7.60;2.57;;;13.80;10.30;;;;;;5019297;28;20855;-83
2022/04/10 12:04:22;;;;;;;5.57;2.23;;;13.50;13.60;;;;;;5019927;28;20486;-84
2022/04/10 12:06:49;;;;;;;6.37;2.23;;;13.70;10.30;;;;;;5020319;28;20476;-83
2022/04/10 12:09:15;;;;;;;6.20;2.40;;;13.50;11.00;;;;;;5018605;28;20977;-82
2022/04/10 12:11:43;;;;;;;9.87;3.27;;;13.00;13.70;;;;;;5018600;28;20468;-83
2022/04/10 12:14:17;;;;;;;9.07;2.87;;;13.10;14.70;;;;;;5020840;28;20483;-83
2022/04/10 12:16:44;;;;;;;9.80;2.90;;;13.50;12.90;;;;;;5021309;28;20498;-83
2022/04/10 12:19:12;;;;;;;6.23;2.27;;;14.10;8.00;;;;;;5018668;28;20462;-83
2022/04/10 12:21:48;;;;;;;10.00;2.83;;;15.10;10.90;;;;;;5024825;28;20937;-83
2022/04/10 12:24:20;;;;;;;6.33;2.57;;;14.70;5.60;;;;;;5040354;28;20474;-83
2022/04/10 12:26:47;;;;;;;9.47;2.80;;;15.70;4.30;;;;;;5038101;28;21055;-83
2022/04/10 12:29:14;;;;;;;7.33;2.50;;;16.10;5.80;;;;;;5036597;28;20954;-83
2022/04/10 12:31:42;;;;;;;10.00;2.33;;;15.40;1.00;;;;;;5038237;28;20901;-83
2022/04/10 12:34:10;;;;;;;7.13;2.50;;;14.80;2.60;;;;;;5039512;28;20451;-83
2022/04/10 12:36:46;;;;;;;5.53;2.33;;;14.60;5.00;;;;;;5039205;28;20517;-82
2022/04/10 12:39:23;;;;;;;9.47;2.83;;;13.50;6.60;;;;;;5037946;28;20557;-83
2022/04/10 12:41:59;;;;;;;8.00;3.20;;;13.00;11.30;;;;;;5038182;28;20458;-82
2022/04/10 12:44:26;;;;;;;5.60;2.33;;;13.90;5.00;;;;;;5040841;28;20475;-83
2022/04/10 12:46:53;;;;;;;8.43;3.03;;;13.50;7.50;;;;;;5037754;28;20469;-82
2022/04/10 12:49:19;;;;;;;8.67;2.30;;;13.00;9.00;;;;;;5038886;28;20464;-81